createdAt,value
2023-05-21T00:04:19.976Z,19.54
2023-05-21T00:09:41.925Z,19.52
2023-05-21T00:15:04.689Z,19.51
2023-05-21T00:20:27.309Z,19.50
2023-05-21T00:25:50.686Z,19.50
2023-05-21T00:31:12.583Z,19.48
2023-05-21T00:36:34.946Z,19.48
2023-05-21T00:41:57.295Z,19.47
2023-05-21T00:47:19.144Z,19.48
2023-05-21T00:52:45.761Z,19.47
2023-05-21T00:58:08.513Z,19.46
2023-05-21T01:03:31.080Z,19.45
2023-05-21T01:08:53.015Z,19.44
2023-05-21T01:14:16.361Z,19.43
2023-05-21T01:19:38.332Z,19.43
2023-05-21T01:25:02.994Z,19.43
2023-05-21T01:30:25.498Z,19.41
2023-05-21T01:36:14.299Z,19.42
2023-05-21T01:41:41.949Z,19.39
2023-05-21T01:47:05.416Z,19.38
2023-05-21T01:52:27.416Z,19.38
2023-05-21T01:57:49.238Z,19.36
2023-05-21T02:03:12.151Z,19.35
2023-05-21T02:08:34.001Z,19.34
2023-05-21T02:13:57.670Z,19.34
2023-05-21T02:19:19.589Z,19.32
2023-05-21T02:24:41.594Z,19.32
2023-05-21T02:30:05.768Z,19.31
2023-05-21T02:35:27.752Z,19.31
2023-05-21T02:40:53.684Z,19.31
2023-05-21T02:46:15.632Z,19.29
2023-05-21T02:51:37.484Z,19.29
2023-05-21T02:56:59.396Z,19.28
2023-05-21T03:02:21.359Z,19.28
2023-05-21T03:07:43.852Z,19.27
2023-05-21T03:13:09.535Z,19.26
2023-05-21T03:18:31.708Z,19.25
2023-05-21T03:23:58.859Z,19.24
2023-05-21T03:29:21.025Z,19.24
2023-05-21T03:34:42.960Z,19.24
2023-05-21T03:40:06.242Z,19.23
2023-05-21T03:45:28.133Z,19.23
2023-05-21T03:50:50.458Z,19.21
2023-05-21T03:56:12.774Z,19.21
2023-05-21T04:01:35.196Z,19.21
2023-05-21T04:06:57.005Z,19.19
2023-05-21T04:12:20.549Z,19.19
2023-05-21T04:17:42.430Z,19.18
2023-05-21T04:23:04.306Z,19.17
2023-05-21T04:28:29.044Z,19.17
2023-05-21T04:33:50.999Z,19.17
2023-05-21T04:39:12.849Z,19.16
2023-05-21T04:44:34.692Z,19.15
2023-05-21T04:49:56.656Z,19.15
2023-05-21T04:55:19.349Z,19.12
2023-05-21T05:00:42.592Z,19.13
2023-05-21T05:06:04.905Z,19.12
2023-05-21T05:11:27.026Z,19.12
2023-05-21T05:16:48.930Z,19.12
2023-05-21T05:22:13.355Z,19.11
2023-05-21T05:27:37.708Z,19.10
2023-05-21T05:33:00.414Z,19.08
2023-05-21T05:38:22.423Z,19.09
2023-05-21T05:43:44.336Z,19.08
2023-05-21T05:49:06.196Z,19.08
2023-05-21T05:54:28.266Z,19.07
2023-05-21T05:59:50.201Z,19.07
2023-05-21T06:05:12.085Z,19.06
2023-05-21T06:10:33.904Z,19.07
2023-05-21T06:15:55.872Z,19.08
2023-05-21T06:21:17.672Z,19.08
2023-05-21T06:26:39.698Z,19.11
2023-05-21T06:32:01.975Z,19.11
2023-05-21T06:37:25.916Z,19.16
2023-05-21T06:42:48.558Z,19.20
2023-05-21T06:48:10.446Z,19.25
2023-05-21T06:53:32.310Z,19.31
2023-05-21T06:58:54.807Z,19.39
2023-05-21T07:04:16.640Z,19.48
2023-05-21T07:09:38.532Z,19.55
2023-05-21T07:15:00.419Z,19.61
2023-05-21T07:20:22.341Z,19.66
2023-05-21T07:25:44.208Z,19.67
2023-05-21T07:31:06.329Z,19.71
2023-05-21T07:36:28.223Z,19.79
2023-05-21T07:41:50.022Z,19.89
2023-05-21T07:47:11.918Z,19.98
2023-05-21T07:52:33.965Z,20.07
2023-05-21T07:57:57.097Z,20.13
2023-05-21T08:03:19.455Z,20.20
2023-05-21T08:08:41.436Z,20.25
2023-05-21T08:14:03.304Z,20.32
2023-05-21T08:19:25.176Z,20.37
2023-05-21T08:24:47.037Z,20.42
2023-05-21T08:30:11.792Z,20.46
2023-05-21T08:35:33.682Z,20.46
2023-05-21T08:40:56.191Z,20.47
2023-05-21T08:46:21.968Z,20.52
2023-05-21T08:51:47.644Z,20.56
2023-05-21T08:57:10.329Z,20.60
2023-05-21T09:02:35.493Z,20.63
2023-05-21T09:08:06.881Z,20.65
2023-05-21T09:13:32.456Z,20.66
2023-05-21T09:18:54.383Z,20.65
2023-05-21T09:24:16.357Z,20.66
2023-05-21T09:29:38.160Z,20.65
2023-05-21T09:35:08.158Z,20.67
2023-05-21T09:40:30.004Z,20.66
2023-05-21T09:45:54.180Z,20.64
2023-05-21T09:51:17.699Z,20.66
2023-05-21T09:56:40.108Z,20.64
2023-05-21T10:02:02.706Z,20.62
2023-05-21T10:07:27.374Z,20.59
2023-05-21T10:12:55.231Z,20.62
2023-05-21T10:18:19.403Z,20.63
2023-05-21T10:23:43.216Z,20.62
2023-05-21T10:29:05.200Z,20.64
2023-05-21T10:34:28.583Z,20.65
2023-05-21T10:39:53.414Z,20.65
2023-05-21T10:45:34.787Z,20.66
2023-05-21T10:51:08.781Z,20.68
2023-05-21T10:56:46.928Z,20.69
2023-05-21T11:02:11.707Z,20.70
2023-05-21T11:07:58.394Z,20.71
2023-05-21T11:13:21.998Z,20.70
2023-05-21T11:18:46.587Z,20.68
2023-05-21T11:24:11.042Z,20.67
2023-05-21T11:29:55.947Z,20.68
2023-05-21T11:35:17.776Z,20.68
2023-05-21T11:40:54.044Z,20.69
2023-05-21T11:46:16.048Z,20.69
2023-05-21T11:51:38.023Z,20.67
2023-05-21T11:57:03.852Z,20.67
2023-05-21T12:02:29.789Z,20.69
2023-05-21T12:07:52.170Z,20.73
2023-05-21T12:13:15.361Z,20.74
2023-05-21T12:18:37.503Z,20.75
2023-05-21T12:23:59.899Z,20.77
2023-05-21T12:29:23.852Z,20.74
2023-05-21T12:34:46.362Z,20.76
2023-05-21T12:40:09.151Z,20.77
2023-05-21T12:45:32.674Z,20.78
2023-05-21T12:50:54.515Z,20.77
2023-05-21T12:56:16.638Z,20.77
2023-05-21T13:01:38.513Z,20.79
2023-05-21T13:07:01.057Z,20.79
2023-05-21T13:12:26.280Z,20.79
2023-05-21T13:17:49.877Z,20.80
2023-05-21T13:23:12.532Z,20.80
2023-05-21T13:28:34.383Z,20.79
2023-05-21T13:33:56.254Z,20.81
2023-05-21T13:39:18.188Z,20.80
2023-05-21T13:44:40.041Z,20.78
2023-05-21T13:50:02.016Z,20.79
2023-05-21T13:55:23.935Z,20.79
2023-05-21T14:00:45.811Z,20.78
2023-05-21T14:06:08.609Z,20.79
2023-05-21T14:11:31.788Z,20.80
2023-05-21T14:16:53.776Z,20.79
2023-05-21T14:22:15.798Z,20.75
2023-05-21T14:27:38.437Z,20.77
2023-05-21T14:33:00.546Z,20.75
2023-05-21T14:38:22.749Z,20.76
2023-05-21T14:43:44.576Z,20.77
2023-05-21T14:49:06.452Z,20.77
2023-05-21T14:54:28.314Z,20.78
2023-05-21T14:59:50.144Z,20.79
2023-05-21T15:05:12.036Z,20.81
2023-05-21T15:10:33.879Z,20.81
2023-05-21T15:15:55.879Z,20.82
2023-05-21T15:21:17.787Z,20.81
2023-05-21T15:26:39.611Z,20.82
2023-05-21T15:32:05.294Z,20.84
2023-05-21T15:37:27.126Z,20.83
2023-05-21T15:42:49.085Z,20.84
2023-05-21T15:48:12.730Z,20.84
2023-05-21T15:53:34.628Z,20.83
2023-05-21T15:58:58.829Z,20.84
2023-05-21T16:04:20.751Z,20.85
2023-05-21T16:09:42.807Z,20.85
2023-05-21T16:15:05.688Z,20.85
2023-05-21T16:20:27.530Z,20.83
2023-05-21T16:25:49.462Z,20.85
2023-05-21T16:31:12.878Z,20.85
2023-05-21T16:36:35.648Z,20.85
2023-05-21T16:42:00.007Z,20.84
2023-05-21T16:47:21.941Z,20.87
2023-05-21T16:52:43.920Z,20.90
2023-05-21T16:58:06.669Z,20.94
2023-05-21T17:03:29.779Z,20.98
2023-05-21T17:08:51.692Z,21.02
2023-05-21T17:14:20.283Z,21.03
2023-05-21T17:19:48.773Z,21.07
2023-05-21T17:25:10.987Z,21.06
2023-05-21T17:30:32.911Z,21.08
2023-05-21T17:35:57.384Z,21.08
2023-05-21T17:41:19.372Z,21.06
2023-05-21T17:46:41.306Z,21.05
2023-05-21T17:52:04.773Z,21.01
2023-05-21T17:57:26.715Z,21.00
2023-05-21T18:02:48.584Z,20.96
2023-05-21T18:08:10.813Z,20.94
2023-05-21T18:13:32.729Z,20.94
2023-05-21T18:18:54.563Z,20.93
2023-05-21T18:24:16.556Z,20.96
2023-05-21T18:29:38.505Z,20.98
2023-05-21T18:35:00.762Z,20.99
2023-05-21T18:40:23.311Z,21.01
2023-05-21T18:45:46.554Z,21.04
2023-05-21T18:51:08.475Z,21.06
2023-05-21T18:56:30.581Z,21.08
2023-05-21T19:01:52.817Z,21.09
2023-05-21T19:07:16.155Z,21.12
2023-05-21T19:12:39.721Z,21.13
2023-05-21T19:18:02.049Z,21.13
2023-05-21T19:23:25.194Z,21.14
2023-05-21T19:28:48.116Z,21.14
2023-05-21T19:34:11.042Z,21.16
2023-05-21T19:39:43.050Z,21.17
2023-05-21T19:45:07.149Z,21.17
2023-05-21T19:50:29.233Z,21.16
2023-05-21T19:55:51.360Z,21.17
2023-05-21T20:01:16.656Z,21.17
2023-05-21T20:06:39.137Z,21.16
2023-05-21T20:12:01.069Z,21.15
2023-05-21T20:17:22.896Z,21.15
2023-05-21T20:22:44.818Z,21.14
2023-05-21T20:28:08.495Z,21.11
2023-05-21T20:33:34.597Z,21.10
2023-05-21T20:38:57.441Z,21.07
2023-05-21T20:44:19.410Z,21.08
2023-05-21T20:49:41.266Z,21.05
2023-05-21T20:55:04.682Z,21.03
2023-05-21T21:00:27.097Z,21.01
2023-05-21T21:05:49.088Z,20.99
2023-05-21T21:11:11.187Z,20.96
2023-05-21T21:16:33.111Z,20.94
2023-05-21T21:21:55.060Z,20.90
2023-05-21T21:27:16.926Z,20.88
2023-05-21T21:32:41.992Z,20.87
2023-05-21T21:38:05.194Z,20.85
2023-05-21T21:43:27.149Z,20.84
2023-05-21T21:48:48.978Z,20.82
2023-05-21T21:54:11.487Z,20.80
2023-05-21T21:59:34.136Z,20.76
2023-05-21T22:04:56.074Z,20.72
2023-05-21T22:10:18.647Z,20.69
2023-05-21T22:15:40.659Z,20.68
2023-05-21T22:21:02.824Z,20.66
2023-05-21T22:26:24.746Z,20.64
2023-05-21T22:31:46.671Z,20.62
2023-05-21T22:37:08.548Z,20.60
2023-05-21T22:42:30.714Z,20.57
2023-05-21T22:47:52.602Z,20.56
2023-05-21T22:53:14.488Z,20.54
2023-05-21T22:58:37.012Z,20.52
2023-05-21T23:03:58.785Z,20.52
2023-05-21T23:09:20.739Z,20.50
2023-05-21T23:14:42.548Z,20.49
2023-05-21T23:20:05.243Z,20.47
2023-05-21T23:25:27.057Z,20.47
2023-05-21T23:30:48.976Z,20.45
2023-05-21T23:36:10.824Z,20.45
2023-05-21T23:41:32.692Z,20.43
2023-05-21T23:46:54.584Z,20.41
2023-05-21T23:52:18.553Z,20.39
2023-05-21T23:57:41.292Z,20.39
